createdAt,value
2022-08-27T00:04:19.820Z,23.20
2022-08-27T00:09:27.019Z,23.40
2022-08-27T00:14:30.492Z,23.50
2022-08-27T00:19:34.021Z,23.60
2022-08-27T00:24:38.557Z,23.70
2022-08-27T00:29:52.068Z,23.70
2022-08-27T00:34:55.224Z,23.60
2022-08-27T00:39:59.670Z,23.60
2022-08-27T00:45:03.048Z,23.60
2022-08-27T00:50:12.020Z,23.60
2022-08-27T00:55:18.995Z,23.40
2022-08-27T01:00:22.190Z,23.30
2022-08-27T01:05:28.330Z,23.40
2022-08-27T01:10:32.903Z,23.40
2022-08-27T01:15:36.371Z,23.50
2022-08-27T01:20:45.060Z,23.50
2022-08-27T01:25:51.812Z,23.50
2022-08-27T01:30:54.738Z,23.30
2022-08-27T01:35:57.613Z,23.00
2022-08-27T01:41:02.799Z,22.90
2022-08-27T01:46:06.242Z,23.00
2022-08-27T01:51:09.766Z,22.80
2022-08-27T01:56:15.337Z,22.50
2022-08-27T02:01:18.340Z,22.50
2022-08-27T02:06:21.350Z,22.60
2022-08-27T02:11:25.599Z,22.70
2022-08-27T02:16:28.741Z,22.80
2022-08-27T02:21:31.687Z,22.90
2022-08-27T02:26:36.076Z,22.90
2022-08-27T02:31:39.886Z,22.90
2022-08-27T02:36:42.915Z,22.80
2022-08-27T02:41:48.407Z,22.70
2022-08-27T02:46:53.588Z,22.70
2022-08-27T02:51:57.331Z,22.70
2022-08-27T02:57:01.604Z,22.60
2022-08-27T03:02:04.942Z,22.60
2022-08-27T03:07:07.980Z,22.60
2022-08-27T03:12:24.904Z,22.50
2022-08-27T03:17:45.529Z,22.70
2022-08-27T03:22:48.460Z,22.80
2022-08-27T03:27:53.072Z,22.70
2022-08-27T03:32:56.075Z,22.80
2022-08-27T03:37:58.999Z,22.80
2022-08-27T03:43:03.326Z,22.90
2022-08-27T03:48:06.867Z,22.90
2022-08-27T03:53:10.503Z,22.90
2022-08-27T03:58:15.206Z,23.00
2022-08-27T04:03:18.136Z,23.10
2022-08-27T04:08:21.613Z,23.10
2022-08-27T04:13:27.327Z,23.00
2022-08-27T04:18:30.212Z,22.80
2022-08-27T04:23:33.111Z,22.70
2022-08-27T04:28:38.785Z,22.80
2022-08-27T04:33:42.307Z,22.60
2022-08-27T04:38:53.455Z,22.50
2022-08-27T04:43:59.920Z,22.30
2022-08-27T04:49:07.115Z,22.40
2022-08-27T04:54:13.316Z,22.50
2022-08-27T04:59:18.279Z,22.60
2022-08-27T05:04:21.291Z,22.70
2022-08-27T05:09:24.549Z,22.80
2022-08-27T05:14:32.328Z,22.70
2022-08-27T05:19:35.289Z,22.60
2022-08-27T05:24:38.820Z,22.60
2022-08-27T05:29:43.036Z,22.70
2022-08-27T05:34:45.948Z,22.70
2022-08-27T05:39:48.840Z,22.80
2022-08-27T05:44:53.264Z,22.80
2022-08-27T05:49:56.692Z,22.80
2022-08-27T05:54:59.714Z,22.90
2022-08-27T06:00:22.140Z,22.90
2022-08-27T06:05:25.067Z,23.00
2022-08-27T06:10:28.041Z,23.00
2022-08-27T06:15:32.718Z,22.80
2022-08-27T06:20:36.034Z,22.80
2022-08-27T06:25:41.904Z,22.80
2022-08-27T06:30:46.173Z,22.90
2022-08-27T06:35:49.108Z,22.90
2022-08-27T06:40:52.019Z,22.90
2022-08-27T06:45:56.357Z,22.90
2022-08-27T06:50:59.667Z,23.00
2022-08-27T06:56:02.680Z,23.00
2022-08-27T07:01:15.513Z,23.00
2022-08-27T07:06:19.016Z,23.00
2022-08-27T07:11:22.482Z,23.00
2022-08-27T07:16:28.348Z,23.00
2022-08-27T07:21:31.624Z,23.00
2022-08-27T07:26:37.258Z,23.10
2022-08-27T07:31:42.002Z,23.10
2022-08-27T07:36:44.904Z,23.10
2022-08-27T07:42:05.288Z,23.10
2022-08-27T07:47:09.787Z,23.10
2022-08-27T07:52:13.520Z,23.10
2022-08-27T07:57:16.422Z,23.10
2022-08-27T08:02:20.897Z,23.10
2022-08-27T08:07:25.066Z,23.10
2022-08-27T08:12:28.044Z,23.20
2022-08-27T08:17:33.799Z,23.20
2022-08-27T08:22:36.863Z,23.10
2022-08-27T08:27:39.730Z,23.20
2022-08-27T08:32:44.288Z,23.20
2022-08-27T08:37:47.529Z,23.20
2022-08-27T08:42:55.740Z,23.10
2022-08-27T08:48:05.902Z,23.30
2022-08-27T08:53:14.198Z,23.30
2022-08-27T08:58:26.155Z,23.20
2022-08-27T09:03:35.478Z,23.10
2022-08-27T09:08:42.719Z,23.10
2022-08-27T09:13:51.620Z,23.20
2022-08-27T09:18:56.506Z,23.10
2022-08-27T09:24:06.288Z,23.10
2022-08-27T09:29:20.234Z,23.00
2022-08-27T09:34:27.245Z,23.00
2022-08-27T09:39:35.275Z,23.00
2022-08-27T09:44:52.874Z,22.80
2022-08-27T09:50:09.447Z,22.80
2022-08-27T09:55:12.371Z,22.70
2022-08-27T10:00:18.067Z,22.70
2022-08-27T10:05:29.465Z,22.20
2022-08-27T10:10:46.138Z,22.10
2022-08-27T10:16:07.240Z,22.10
2022-08-27T10:21:20.132Z,22.00
2022-08-27T10:26:29.703Z,22.10
2022-08-27T10:31:41.814Z,22.50
2022-08-27T10:36:58.022Z,22.40
2022-08-27T10:42:15.018Z,22.40
2022-08-27T10:47:31.399Z,22.10
2022-08-27T10:52:40.550Z,22.30
2022-08-27T10:58:08.428Z,22.40
2022-08-27T11:03:15.392Z,22.40
2022-08-27T11:08:25.258Z,22.50
2022-08-27T11:13:36.260Z,22.50
2022-08-27T11:18:48.291Z,22.50
2022-08-27T11:23:58.448Z,22.40
2022-08-27T11:29:06.776Z,22.30
2022-08-27T11:34:19.338Z,22.20
2022-08-27T11:39:40.687Z,22.30
2022-08-27T11:44:46.602Z,22.40
2022-08-27T11:49:52.640Z,22.40
2022-08-27T11:55:12.745Z,22.50
2022-08-27T12:00:20.287Z,22.50
2022-08-27T12:05:26.860Z,22.50
2022-08-27T12:10:47.748Z,22.60
2022-08-27T12:15:59.749Z,22.60
2022-08-27T12:21:11.221Z,22.80
2022-08-27T12:26:30.238Z,22.90
2022-08-27T12:31:35.336Z,22.80
2022-08-27T12:36:38.372Z,22.90
2022-08-27T12:41:47.084Z,22.80
2022-08-27T12:46:55.364Z,22.80
2022-08-27T12:52:02.164Z,22.70
2022-08-27T12:57:12.832Z,22.90
2022-08-27T13:02:32.759Z,22.90
2022-08-27T13:07:41.580Z,22.90
2022-08-27T13:12:47.491Z,22.90
2022-08-27T13:17:52.702Z,23.20
2022-08-27T13:22:56.868Z,23.10
2022-08-27T13:28:07.876Z,23.40
2022-08-27T13:33:15.592Z,23.60
2022-08-27T13:38:21.464Z,23.90
2022-08-27T13:43:32.700Z,24.00
2022-08-27T13:48:40.562Z,23.90
2022-08-27T13:54:04.232Z,24.30
2022-08-27T13:59:14.663Z,24.20
2022-08-27T14:04:24.178Z,24.20
2022-08-27T14:09:29.932Z,24.30
2022-08-27T14:14:39.929Z,24.50
2022-08-27T14:19:42.964Z,24.50
2022-08-27T14:24:45.988Z,24.50
2022-08-27T14:29:50.916Z,24.60
2022-08-27T14:34:54.404Z,24.60
2022-08-27T14:39:58.827Z,24.90
2022-08-27T14:45:03.565Z,25.00
2022-08-27T14:50:11.047Z,25.00
2022-08-27T14:55:14.413Z,25.20
2022-08-27T15:00:19.733Z,25.40
2022-08-27T15:05:24.735Z,25.50
2022-08-27T15:10:28.138Z,25.60
2022-08-27T15:15:32.806Z,25.60
2022-08-27T15:20:36.361Z,25.40
2022-08-27T15:25:40.383Z,25.30
2022-08-27T15:30:44.970Z,25.40
2022-08-27T15:35:48.077Z,25.30
2022-08-27T15:40:51.637Z,25.20
2022-08-27T15:45:56.699Z,25.20
2022-08-27T15:51:02.521Z,25.20
2022-08-27T15:56:07.890Z,25.30
2022-08-27T16:01:14.291Z,25.50
2022-08-27T16:06:19.630Z,25.50
2022-08-27T16:11:23.193Z,25.50
2022-08-27T16:16:36.735Z,25.50
2022-08-27T16:21:39.874Z,25.60
2022-08-27T16:26:43.113Z,25.40
2022-08-27T16:31:47.537Z,25.70
2022-08-27T16:36:52.802Z,25.60
2022-08-27T16:41:55.885Z,25.50
2022-08-27T16:47:00.144Z,25.50
2022-08-27T16:52:03.809Z,25.60
2022-08-27T16:57:07.123Z,25.60
2022-08-27T17:02:19.751Z,25.50
2022-08-27T17:07:25.774Z,25.50
2022-08-27T17:12:29.056Z,25.80
2022-08-27T17:17:33.395Z,25.70
2022-08-27T17:22:36.535Z,25.60
2022-08-27T17:27:39.670Z,25.80
2022-08-27T17:32:45.450Z,25.60
2022-08-27T17:37:48.349Z,25.70
2022-08-27T17:42:51.745Z,25.70
2022-08-27T17:47:55.987Z,25.40
2022-08-27T17:52:59.371Z,25.40
2022-08-27T17:58:02.317Z,25.50
2022-08-27T18:03:16.636Z,25.50
2022-08-27T18:08:20.623Z,25.40
2022-08-27T18:13:23.825Z,25.50
2022-08-27T18:18:28.698Z,25.60
2022-08-27T18:23:32.088Z,25.70
2022-08-27T18:28:40.172Z,25.60
2022-08-27T18:33:44.431Z,25.60
2022-08-27T18:38:47.369Z,25.60
2022-08-27T18:43:50.857Z,25.60
2022-08-27T18:48:55.159Z,25.40
2022-08-27T18:54:02.296Z,25.30
2022-08-27T18:59:06.889Z,25.10
2022-08-27T19:04:11.860Z,25.10
2022-08-27T19:09:16.123Z,24.80
2022-08-27T19:14:19.205Z,24.90
2022-08-27T19:19:25.608Z,24.90
2022-08-27T19:24:28.956Z,24.70
2022-08-27T19:29:31.899Z,24.70
2022-08-27T19:34:36.128Z,24.80
2022-08-27T19:39:39.217Z,24.80
2022-08-27T19:44:42.290Z,24.80
2022-08-27T19:49:49.533Z,24.70
2022-08-27T19:55:12.459Z,24.60
2022-08-27T20:00:20.001Z,24.00
2022-08-27T20:05:24.427Z,23.80
2022-08-27T20:10:36.208Z,23.70
2022-08-27T20:15:40.610Z,23.80
2022-08-27T20:20:44.933Z,24.00
2022-08-27T20:25:47.883Z,23.80
2022-08-27T20:30:53.263Z,24.00
2022-08-27T20:35:59.576Z,23.90
2022-08-27T20:41:02.773Z,23.70
2022-08-27T20:46:06.163Z,23.50
2022-08-27T20:51:14.519Z,23.60
2022-08-27T20:56:17.432Z,23.80
2022-08-27T21:01:20.342Z,23.80
2022-08-27T21:06:26.532Z,23.80
2022-08-27T21:11:29.635Z,23.90
2022-08-27T21:16:33.199Z,23.80
2022-08-27T21:21:37.430Z,23.70
2022-08-27T21:26:40.421Z,23.50
2022-08-27T21:31:43.405Z,23.40
2022-08-27T21:36:47.684Z,23.10
2022-08-27T21:41:50.815Z,23.10
2022-08-27T21:46:53.798Z,23.20
2022-08-27T21:51:58.064Z,23.20
2022-08-27T21:57:03.043Z,23.10
2022-08-27T22:02:22.939Z,23.10
2022-08-27T22:07:30.179Z,23.00
2022-08-27T22:12:33.091Z,23.10
2022-08-27T22:17:36.228Z,23.10
2022-08-27T22:22:40.615Z,23.10
2022-08-27T22:27:43.507Z,23.00
2022-08-27T22:32:46.632Z,22.70
2022-08-27T22:37:51.767Z,22.60
2022-08-27T22:42:54.888Z,22.20
2022-08-27T22:47:58.234Z,22.50
2022-08-27T22:53:02.562Z,22.60
2022-08-27T22:58:05.785Z,22.50
2022-08-27T23:03:11.383Z,22.50
2022-08-27T23:08:16.352Z,22.40
2022-08-27T23:13:19.303Z,22.10
2022-08-27T23:18:22.212Z,22.00
2022-08-27T23:23:29.903Z,22.10
2022-08-27T23:28:33.834Z,22.30
2022-08-27T23:33:36.863Z,22.40
2022-08-27T23:38:42.612Z,22.30
2022-08-27T23:43:45.658Z,22.40
2022-08-27T23:48:48.535Z,22.20
2022-08-27T23:53:52.799Z,22.00
2022-08-27T23:58:55.768Z,21.80
